createdAt,value
2018-06-17T00:02:45.249Z,57.90
2018-06-17T00:05:14.649Z,57.70
2018-06-17T00:07:46.873Z,57.70
2018-06-17T00:10:17.354Z,57.90
2018-06-17T00:12:46.843Z,58.00
2018-06-17T00:15:15.980Z,58.20
2018-06-17T00:17:48.672Z,58.30
2018-06-17T00:20:21.406Z,58.40
2018-06-17T00:25:25.176Z,58.60
2018-06-17T00:27:55.524Z,58.50
2018-06-17T00:30:24.388Z,58.60
2018-06-17T00:32:54.386Z,58.40
2018-06-17T00:35:24.645Z,58.10
2018-06-17T00:37:54.982Z,58.00
2018-06-17T00:40:24.054Z,57.60
2018-06-17T00:42:54.857Z,57.50
2018-06-17T00:45:23.828Z,57.50
2018-06-17T00:50:25.724Z,57.40
2018-06-17T00:52:55.996Z,57.60
2018-06-17T00:55:28.220Z,57.70
2018-06-17T00:57:58.018Z,57.50
2018-06-17T01:00:31.973Z,57.80
2018-06-17T01:03:02.163Z,57.60
2018-06-17T01:05:31.110Z,57.70
2018-06-17T01:08:00.895Z,57.60
2018-06-17T01:10:30.400Z,58.00
2018-06-17T01:13:00.281Z,57.90
2018-06-17T01:15:29.561Z,57.80
2018-06-17T01:17:59.108Z,57.90
2018-06-17T01:20:27.953Z,57.90
2018-06-17T01:23:00.350Z,57.70
2018-06-17T01:25:29.350Z,57.80
2018-06-17T01:28:02.674Z,57.70
2018-06-17T01:30:32.381Z,57.70
2018-06-17T01:33:01.824Z,57.60
2018-06-17T01:35:31.176Z,57.50
2018-06-17T01:38:00.700Z,57.50
2018-06-17T01:40:29.533Z,57.50
2018-06-17T01:42:59.344Z,57.70
2018-06-17T01:45:29.594Z,57.90
2018-06-17T01:48:00.035Z,58.40
2018-06-17T01:50:29.351Z,58.50
2018-06-17T01:52:58.308Z,58.60
2018-06-17T01:57:57.347Z,58.60
2018-06-17T02:00:28.101Z,58.70
2018-06-17T02:02:58.041Z,58.70
2018-06-17T02:05:38.078Z,58.80
2018-06-17T02:08:12.494Z,59.00
2018-06-17T02:10:47.818Z,59.20
2018-06-17T02:13:16.693Z,59.30
2018-06-17T02:15:45.985Z,59.50
2018-06-17T02:18:15.497Z,59.50
2018-06-17T02:20:45.505Z,59.20
2018-06-17T02:23:14.940Z,59.30
2018-06-17T02:25:44.044Z,59.30
2018-06-17T02:28:14.893Z,59.40
2018-06-17T02:30:43.733Z,59.30
2018-06-17T02:33:13.030Z,59.10
2018-06-17T02:38:12.061Z,59.00
2018-06-17T02:40:41.004Z,58.90
2018-06-17T02:43:10.955Z,58.90
2018-06-17T02:45:44.992Z,58.80
2018-06-17T02:48:18.953Z,58.70
2018-06-17T02:50:53.369Z,58.40
2018-06-17T02:53:31.884Z,58.40
2018-06-17T02:56:01.992Z,58.80
2018-06-17T02:58:31.501Z,58.10
2018-06-17T03:01:01.552Z,58.10
2018-06-17T03:03:37.345Z,58.00
2018-06-17T03:06:10.221Z,58.20
2018-06-17T03:08:40.613Z,58.30
2018-06-17T03:11:10.072Z,58.20
2018-06-17T03:13:39.557Z,58.20
2018-06-17T03:16:08.523Z,58.20
2018-06-17T03:18:38.066Z,58.20
2018-06-17T03:21:12.352Z,58.30
2018-06-17T03:23:42.975Z,58.30
2018-06-17T03:26:16.846Z,58.40
2018-06-17T03:28:51.731Z,58.50
2018-06-17T03:31:21.028Z,58.50
2018-06-17T03:33:56.174Z,58.40
2018-06-17T03:36:24.924Z,58.30
2018-06-17T03:38:53.737Z,58.30
2018-06-17T03:41:22.564Z,58.30
2018-06-17T03:43:53.097Z,58.20
2018-06-17T03:46:22.302Z,58.70
2018-06-17T03:48:51.143Z,58.10
2018-06-17T03:51:19.992Z,57.90
2018-06-17T03:53:48.940Z,57.80
2018-06-17T03:56:17.871Z,57.80
2018-06-17T03:58:47.365Z,57.60
2018-06-17T04:01:17.221Z,57.70
2018-06-17T04:03:47.219Z,57.70
2018-06-17T04:06:16.061Z,57.60
2018-06-17T04:08:45.322Z,57.50
2018-06-17T04:11:14.729Z,57.60
2018-06-17T04:13:43.795Z,57.60
2018-06-17T04:16:12.812Z,57.60
2018-06-17T04:18:44.705Z,57.60
2018-06-17T04:21:13.526Z,57.60
2018-06-17T04:23:45.537Z,57.60
2018-06-17T04:26:14.909Z,57.90
2018-06-17T04:28:44.985Z,58.00
2018-06-17T04:33:42.156Z,57.50
2018-06-17T04:36:11.888Z,57.40
2018-06-17T04:38:42.265Z,57.30
2018-06-17T04:41:12.449Z,57.20
2018-06-17T04:43:41.817Z,57.10
2018-06-17T04:46:10.824Z,57.00
2018-06-17T04:48:39.865Z,57.20
2018-06-17T04:51:09.087Z,57.20
2018-06-17T04:53:38.612Z,57.10
2018-06-17T04:56:09.296Z,57.00
2018-06-17T04:58:38.111Z,57.00
2018-06-17T05:01:06.948Z,57.00
2018-06-17T05:03:35.942Z,56.90
2018-06-17T05:06:05.039Z,56.80
2018-06-17T05:08:34.313Z,56.80
2018-06-17T05:11:03.192Z,56.70
2018-06-17T05:13:33.310Z,56.80
2018-06-17T05:16:02.282Z,57.00
2018-06-17T05:18:32.263Z,57.00
2018-06-17T05:21:02.275Z,56.90
2018-06-17T05:23:31.638Z,57.00
2018-06-17T05:26:01.629Z,57.00
2018-06-17T05:28:31.106Z,57.20
2018-06-17T05:31:00.053Z,56.90
2018-06-17T05:33:28.872Z,56.90
2018-06-17T05:35:57.766Z,56.70
2018-06-17T05:38:27.287Z,56.60
2018-06-17T05:40:57.486Z,56.50
2018-06-17T05:43:27.539Z,56.30
2018-06-17T05:45:57.809Z,56.10
2018-06-17T05:50:56.040Z,55.80
2018-06-17T05:53:25.754Z,55.80
2018-06-17T05:55:55.264Z,55.80
2018-06-17T05:58:24.677Z,56.00
2018-06-17T06:00:53.422Z,56.40
2018-06-17T06:05:51.826Z,56.30
2018-06-17T06:08:21.097Z,56.00
2018-06-17T06:10:51.253Z,56.40
2018-06-17T06:13:20.933Z,56.40
2018-06-17T06:15:50.473Z,56.30
2018-06-17T06:18:20.043Z,56.40
2018-06-17T06:20:49.239Z,56.30
2018-06-17T06:23:18.211Z,56.30
2018-06-17T06:25:47.558Z,56.10
2018-06-17T06:28:17.067Z,56.10
2018-06-17T06:30:46.598Z,56.60
2018-06-17T06:33:15.864Z,56.30
2018-06-17T06:38:13.118Z,56.30
2018-06-17T06:40:42.405Z,56.20
2018-06-17T06:43:11.316Z,55.60
2018-06-17T06:45:41.712Z,55.60
2018-06-17T06:48:11.513Z,55.30
2018-06-17T06:50:40.869Z,55.30
2018-06-17T06:53:10.157Z,55.10
2018-06-17T06:55:39.200Z,55.00
2018-06-17T06:58:08.116Z,55.10
2018-06-17T07:00:37.765Z,54.90
2018-06-17T07:03:17.761Z,54.60
2018-06-17T07:05:57.814Z,53.80
2018-06-17T07:09:40.659Z,54.20
2018-06-17T07:12:09.576Z,54.30
2018-06-17T07:14:38.408Z,53.70
2018-06-17T07:17:18.449Z,53.70
2018-06-17T07:19:47.368Z,53.80
2018-06-17T07:22:20.934Z,53.70
2018-06-17T07:24:50.198Z,53.30
2018-06-17T07:27:30.099Z,53.20
2018-06-17T07:29:59.800Z,53.20
2018-06-17T07:32:28.504Z,53.10
2018-06-17T07:34:58.889Z,53.50
2018-06-17T07:37:27.766Z,53.10
2018-06-17T07:41:04.834Z,53.10
2018-06-17T07:43:33.727Z,53.10
2018-06-17T07:46:02.803Z,53.20
2018-06-17T07:49:46.919Z,53.20
2018-06-17T07:52:27.981Z,53.30
2018-06-17T07:54:58.836Z,53.30
2018-06-17T07:57:29.165Z,52.80
2018-06-17T07:59:58.449Z,53.10
2018-06-17T08:02:27.883Z,53.10
2018-06-17T08:04:58.064Z,52.80
2018-06-17T08:07:30.890Z,52.70
2018-06-17T08:10:00.815Z,52.50
2018-06-17T08:12:30.264Z,52.30
2018-06-17T08:14:59.582Z,52.80
2018-06-17T08:17:28.925Z,52.50
2018-06-17T08:19:58.408Z,52.60
2018-06-17T08:22:27.221Z,51.90
2018-06-17T08:24:56.293Z,51.80
2018-06-17T08:27:25.938Z,50.90
2018-06-17T08:29:55.533Z,50.00
2018-06-17T08:32:25.137Z,50.00
2018-06-17T08:34:55.325Z,49.40
2018-06-17T08:37:24.733Z,49.30
2018-06-17T08:39:55.128Z,49.10
2018-06-17T08:42:24.305Z,48.90
2018-06-17T08:44:53.308Z,49.30
2018-06-17T08:47:22.733Z,49.10
2018-06-17T08:49:52.510Z,49.50
2018-06-17T08:52:21.391Z,49.70
2018-06-17T08:54:50.135Z,49.30
2018-06-17T08:57:18.785Z,48.80
2018-06-17T08:59:47.453Z,48.80
2018-06-17T09:02:17.105Z,48.60
2018-06-17T09:04:46.034Z,48.60
2018-06-17T09:07:15.133Z,47.00
2018-06-17T09:09:44.978Z,47.20
2018-06-17T09:12:13.889Z,47.90
2018-06-17T09:14:43.436Z,47.60
2018-06-17T09:17:12.751Z,47.60
2018-06-17T09:19:42.279Z,47.70
2018-06-17T09:22:10.981Z,47.90
2018-06-17T09:24:40.056Z,47.40
2018-06-17T09:27:08.958Z,47.70
2018-06-17T09:29:38.324Z,47.80
2018-06-17T09:32:07.781Z,47.90
2018-06-17T09:34:37.408Z,48.10
2018-06-17T09:37:06.865Z,48.20
2018-06-17T09:39:36.261Z,48.20
2018-06-17T09:42:05.094Z,48.10
2018-06-17T09:44:34.856Z,47.90
2018-06-17T09:47:04.847Z,47.90
2018-06-17T09:49:34.265Z,47.70
2018-06-17T09:52:04.011Z,47.80
2018-06-17T09:54:33.364Z,47.40
2018-06-17T09:59:30.948Z,48.10
2018-06-17T10:04:28.853Z,46.80
2018-06-17T10:06:57.725Z,47.10
2018-06-17T10:12:00.505Z,46.30
2018-06-17T10:14:30.622Z,44.70
2018-06-17T10:16:59.296Z,44.50
2018-06-17T10:19:28.561Z,44.10
2018-06-17T10:21:57.822Z,44.00
2018-06-17T10:26:55.944Z,43.60
2018-06-17T10:29:26.264Z,43.60
2018-06-17T10:31:54.974Z,43.20
2018-06-17T10:34:29.852Z,43.30
2018-06-17T10:36:59.204Z,43.20
2018-06-17T10:39:29.535Z,43.60
2018-06-17T10:41:58.584Z,43.70
2018-06-17T10:44:27.388Z,43.10
2018-06-17T10:46:57.524Z,43.10
2018-06-17T10:49:27.437Z,42.40
2018-06-17T10:51:56.386Z,42.40
2018-06-17T10:54:25.221Z,42.20
2018-06-17T10:56:54.640Z,41.80
2018-06-17T10:59:24.229Z,41.80
2018-06-17T11:01:53.126Z,41.90
2018-06-17T11:04:22.158Z,41.90
2018-06-17T11:06:51.255Z,41.70
2018-06-17T11:09:20.755Z,41.80
2018-06-17T11:11:50.726Z,42.40
2018-06-17T11:19:17.796Z,42.70
2018-06-17T11:24:16.547Z,42.80
2018-06-17T11:26:45.457Z,43.00
2018-06-17T11:29:14.319Z,42.70
2018-06-17T11:31:43.356Z,42.60
2018-06-17T11:34:14.878Z,42.40
2018-06-17T11:36:43.815Z,42.10
2018-06-17T11:39:13.380Z,41.80
2018-06-17T11:41:42.249Z,41.30
2018-06-17T11:44:11.439Z,41.30
2018-06-17T11:46:40.335Z,42.00
2018-06-17T11:49:09.676Z,42.50
2018-06-17T11:51:40.086Z,42.70
2018-06-17T11:54:09.795Z,43.10
2018-06-17T11:56:38.643Z,43.40
2018-06-17T11:59:08.396Z,42.60
2018-06-17T12:01:37.386Z,43.00
2018-06-17T12:04:07.070Z,42.90
2018-06-17T12:06:36.096Z,42.60
2018-06-17T12:09:08.020Z,42.20
2018-06-17T12:11:37.062Z,42.40
2018-06-17T12:14:06.089Z,41.90
2018-06-17T12:16:36.185Z,42.00
2018-06-17T12:19:06.682Z,41.40
2018-06-17T12:21:35.468Z,40.80
2018-06-17T12:24:06.052Z,40.60
2018-06-17T12:26:35.161Z,39.90
2018-06-17T12:29:04.653Z,39.50
2018-06-17T12:31:34.079Z,39.20
2018-06-17T12:34:04.073Z,38.70
2018-06-17T12:36:32.928Z,39.00
2018-06-17T12:39:01.691Z,38.80
2018-06-17T12:41:30.385Z,39.30
2018-06-17T12:44:00.406Z,39.70
2018-06-17T12:46:29.326Z,40.10
2018-06-17T12:48:58.402Z,40.20
2018-06-17T12:51:28.489Z,40.70
2018-06-17T12:53:57.974Z,40.60
2018-06-17T12:56:26.817Z,40.40
2018-06-17T12:58:56.273Z,40.40
2018-06-17T13:01:25.158Z,40.40
2018-06-17T13:03:55.617Z,40.40
2018-06-17T13:06:24.829Z,40.20
2018-06-17T13:08:54.597Z,40.40
2018-06-17T13:11:23.965Z,40.40
2018-06-17T13:13:52.719Z,40.60
2018-06-17T13:16:21.742Z,40.90
2018-06-17T13:18:51.644Z,41.20
2018-06-17T13:21:21.857Z,41.50
2018-06-17T13:23:51.674Z,41.50
2018-06-17T13:26:20.901Z,41.50
2018-06-17T13:28:49.908Z,41.50
2018-06-17T13:31:19.320Z,41.80
2018-06-17T13:33:48.290Z,41.90
2018-06-17T13:36:17.038Z,41.80
2018-06-17T13:38:45.908Z,42.00
2018-06-17T13:41:14.821Z,41.80
2018-06-17T13:43:43.750Z,41.90
2018-06-17T13:46:13.405Z,41.80
2018-06-17T13:48:42.861Z,42.10
2018-06-17T13:51:12.020Z,41.90
2018-06-17T13:56:10.036Z,42.40
2018-06-17T13:58:39.110Z,42.50
2018-06-17T14:01:08.523Z,42.50
2018-06-17T14:03:37.837Z,42.70
2018-06-17T14:06:06.754Z,42.80
2018-06-17T14:08:36.661Z,43.30
2018-06-17T14:11:05.934Z,43.40
2018-06-17T14:13:36.233Z,43.50
2018-06-17T14:16:05.075Z,43.30
2018-06-17T14:18:34.802Z,43.20
2018-06-17T14:21:03.789Z,43.00
2018-06-17T14:23:33.399Z,43.20
2018-06-17T14:26:02.357Z,43.80
2018-06-17T14:28:32.184Z,43.90
2018-06-17T14:31:01.282Z,44.00
2018-06-17T14:33:30.161Z,44.20
2018-06-17T14:35:59.897Z,44.40
2018-06-17T14:38:29.241Z,44.90
2018-06-17T14:41:03.904Z,45.30
2018-06-17T14:43:37.987Z,45.60
2018-06-17T14:46:12.002Z,45.30
2018-06-17T14:48:46.850Z,45.20
2018-06-17T14:51:21.274Z,45.10
2018-06-17T14:53:50.920Z,45.00
2018-06-17T14:56:20.119Z,45.00
2018-06-17T14:58:51.905Z,44.90
2018-06-17T15:01:20.819Z,44.60
2018-06-17T15:03:50.971Z,44.40
2018-06-17T15:06:20.086Z,44.30
2018-06-17T15:08:49.721Z,44.10
2018-06-17T15:11:18.881Z,43.60
2018-06-17T15:13:48.637Z,43.00
2018-06-17T15:16:19.075Z,43.50
2018-06-17T15:18:48.676Z,44.00
2018-06-17T15:21:17.542Z,44.30
2018-06-17T15:23:47.092Z,45.10
2018-06-17T15:26:17.244Z,45.60
2018-06-17T15:28:45.968Z,45.80
2018-06-17T15:31:20.215Z,45.90
2018-06-17T15:33:54.173Z,46.00
2018-06-17T15:36:28.256Z,46.30
2018-06-17T15:38:58.128Z,46.20
2018-06-17T15:41:32.617Z,46.30
2018-06-17T15:44:02.373Z,46.20
2018-06-17T15:46:31.202Z,45.70
2018-06-17T15:49:00.415Z,45.90
2018-06-17T15:51:29.484Z,45.40
2018-06-17T15:53:59.117Z,45.80
2018-06-17T15:56:28.168Z,46.00
2018-06-17T15:58:57.492Z,46.10
2018-06-17T16:01:27.328Z,45.40
2018-06-17T16:03:56.821Z,45.20
2018-06-17T16:06:26.902Z,45.60
2018-06-17T16:08:55.901Z,45.80
2018-06-17T16:13:59.457Z,46.10
2018-06-17T16:16:33.900Z,45.70
2018-06-17T16:21:37.198Z,46.40
2018-06-17T16:24:06.880Z,46.70
2018-06-17T16:26:36.250Z,46.70
2018-06-17T16:29:05.508Z,47.70
2018-06-17T16:31:35.142Z,48.10
2018-06-17T16:34:04.347Z,48.10
2018-06-17T16:36:33.790Z,48.40
2018-06-17T16:39:03.455Z,48.50
2018-06-17T16:41:33.856Z,48.50
2018-06-17T16:44:02.724Z,48.50
2018-06-17T16:46:31.440Z,48.60
2018-06-17T16:49:00.329Z,48.60
2018-06-17T16:51:34.256Z,48.70
2018-06-17T16:54:08.176Z,49.10
2018-06-17T16:56:42.346Z,49.30
2018-06-17T16:59:17.217Z,49.60
2018-06-17T17:01:46.148Z,50.00
2018-06-17T17:04:16.141Z,50.00
2018-06-17T17:06:45.222Z,50.10
2018-06-17T17:09:18.375Z,50.20
2018-06-17T17:11:47.244Z,50.00
2018-06-17T17:14:17.857Z,49.70
2018-06-17T17:16:46.656Z,49.50
2018-06-17T17:21:44.676Z,49.30
2018-06-17T17:24:13.812Z,49.00
2018-06-17T17:26:43.689Z,48.60
2018-06-17T17:29:12.577Z,48.50
2018-06-17T17:31:46.817Z,48.40
2018-06-17T17:34:21.530Z,47.90
2018-06-17T17:36:55.760Z,47.80
2018-06-17T17:39:29.911Z,47.60
2018-06-17T17:41:59.553Z,47.60
2018-06-17T17:44:33.131Z,47.00
2018-06-17T17:47:07.034Z,46.80
2018-06-17T17:49:35.813Z,46.80
2018-06-17T17:52:04.548Z,46.70
2018-06-17T17:54:34.935Z,46.30
2018-06-17T17:59:33.901Z,46.30
2018-06-17T18:02:03.971Z,46.50
2018-06-17T18:07:03.239Z,46.00
2018-06-17T18:09:33.277Z,45.90
2018-06-17T18:12:03.919Z,45.80
2018-06-17T18:14:34.195Z,45.60
2018-06-17T18:17:03.967Z,45.40
2018-06-17T18:19:33.141Z,45.30
2018-06-17T18:22:02.653Z,45.20
2018-06-17T18:24:31.933Z,45.10
2018-06-17T18:27:06.655Z,45.20
2018-06-17T18:29:41.397Z,44.90
2018-06-17T18:32:15.814Z,45.00
2018-06-17T18:34:50.616Z,45.00
2018-06-17T18:37:19.476Z,44.70
2018-06-17T18:39:48.421Z,45.00
2018-06-17T18:42:17.374Z,45.00
2018-06-17T18:44:46.106Z,44.90
2018-06-17T18:47:15.015Z,45.00
2018-06-17T18:49:44.513Z,45.20
2018-06-17T18:52:14.902Z,45.20
2018-06-17T18:54:43.921Z,45.20
2018-06-17T18:57:12.781Z,45.20
2018-06-17T18:59:42.722Z,45.20
2018-06-17T19:02:11.570Z,45.50
2018-06-17T19:07:09.986Z,45.50
2018-06-17T19:09:45.171Z,45.60
2018-06-17T19:12:20.458Z,45.50
2018-06-17T19:14:54.620Z,45.60
2018-06-17T19:17:29.216Z,45.50
2018-06-17T19:19:58.083Z,45.50
2018-06-17T19:24:56.011Z,45.70
2018-06-17T19:27:24.938Z,45.70
2018-06-17T19:29:53.989Z,45.80
2018-06-17T19:32:22.796Z,45.80
2018-06-17T19:34:52.432Z,45.90
2018-06-17T19:37:21.507Z,46.20
2018-06-17T19:39:50.334Z,46.30
2018-06-17T19:42:19.317Z,46.50
2018-06-17T19:44:48.163Z,46.70
2018-06-17T19:47:18.716Z,46.80
2018-06-17T19:49:52.822Z,46.90
2018-06-17T19:52:26.785Z,47.10
2018-06-17T19:55:01.703Z,47.20
2018-06-17T19:57:36.485Z,47.50
2018-06-17T20:00:11.381Z,47.70
2018-06-17T20:05:09.206Z,48.10
2018-06-17T20:07:37.891Z,48.20
2018-06-17T20:10:07.661Z,48.50
2018-06-17T20:12:37.010Z,48.70
2018-06-17T20:15:06.280Z,48.90
2018-06-17T20:17:35.157Z,49.10
2018-06-17T20:20:03.854Z,49.10
2018-06-17T20:22:32.816Z,49.20
2018-06-17T20:25:03.993Z,49.40
2018-06-17T20:27:34.228Z,49.50
2018-06-17T20:30:03.267Z,49.60
2018-06-17T20:34:44.735Z,49.80
2018-06-17T20:39:57.936Z,49.90
2018-06-17T20:42:32.097Z,49.90
2018-06-17T20:45:01.579Z,50.00
2018-06-17T20:47:30.698Z,50.00
2018-06-17T20:49:59.770Z,50.10
2018-06-17T20:52:28.661Z,50.10
2018-06-17T20:54:57.478Z,50.00
2018-06-17T20:57:26.743Z,50.10
2018-06-17T20:59:55.674Z,50.00
2018-06-17T21:02:24.384Z,50.00
2018-06-17T21:04:53.235Z,49.90
2018-06-17T21:07:21.962Z,50.00
2018-06-17T21:09:51.090Z,50.10
2018-06-17T21:12:21.135Z,50.40
2018-06-17T21:14:50.584Z,50.50
2018-06-17T21:17:20.392Z,50.70
2018-06-17T21:19:55.248Z,51.00
2018-06-17T21:27:37.277Z,51.90
2018-06-17T21:30:06.778Z,52.20
2018-06-17T21:32:36.485Z,52.30
2018-06-17T21:35:06.461Z,52.70
2018-06-17T21:37:35.809Z,52.90
2018-06-17T21:40:05.240Z,53.10
2018-06-17T21:42:34.183Z,53.60
2018-06-17T21:45:07.949Z,53.50
2018-06-17T21:47:37.317Z,53.70
2018-06-17T21:50:06.887Z,54.00
2018-06-17T21:52:36.755Z,54.40
2018-06-17T21:57:34.992Z,54.40
2018-06-17T22:00:04.531Z,54.50
2018-06-17T22:02:36.263Z,54.80
2018-06-17T22:05:05.641Z,54.80
2018-06-17T22:07:39.333Z,54.90
2018-06-17T22:10:13.793Z,55.00
2018-06-17T22:12:47.802Z,55.00
2018-06-17T22:15:22.729Z,55.10
2018-06-17T22:17:53.209Z,55.10
2018-06-17T22:22:51.723Z,55.30
2018-06-17T22:25:20.570Z,55.30
2018-06-17T22:27:49.267Z,55.20
2018-06-17T22:30:18.853Z,55.20
2018-06-17T22:32:49.289Z,55.40
2018-06-17T22:35:19.332Z,55.40
2018-06-17T22:40:17.534Z,55.50
2018-06-17T22:45:16.176Z,55.70
2018-06-17T22:47:50.407Z,55.80
2018-06-17T22:50:19.271Z,55.90
2018-06-17T22:52:58.945Z,55.90
2018-06-17T22:55:28.454Z,56.00
2018-06-17T22:58:02.676Z,56.00
2018-06-17T23:00:37.548Z,56.00
2018-06-17T23:05:46.178Z,56.00
2018-06-17T23:08:21.475Z,56.00
2018-06-17T23:10:50.320Z,56.10
2018-06-17T23:13:19.141Z,56.00
2018-06-17T23:15:49.272Z,56.00
2018-06-17T23:18:18.176Z,56.10
2018-06-17T23:20:51.292Z,56.10
2018-06-17T23:25:48.825Z,56.00
2018-06-17T23:28:17.584Z,56.00
2018-06-17T23:30:47.574Z,56.30
2018-06-17T23:33:16.997Z,56.30
2018-06-17T23:38:15.801Z,56.40
2018-06-17T23:43:12.998Z,56.30
2018-06-17T23:45:48.534Z,56.30
2018-06-17T23:48:22.736Z,56.40
2018-06-17T23:50:56.714Z,56.80
2018-06-17T23:55:33.942Z,56.90
2018-06-17T23:58:03.307Z,57.20
